Time,TemperatureF,DewpointF,PressureIn,WindDirection,WindDirectionDegrees,WindSpeedMPH,WindSpeedGustMPH,Humidity,HourlyPrecipIn,Conditions,Clouds,dailyrainin,SoftwareType,DateUTC
2013-01-01 00:02:00,23.0,21.0,-100.00,East,88,1.0,1.0,92,-99.99,,,-99.99,,2013-01-01 08:02:00,
2013-01-01 00:11:00,23.0,21.0,-100.00,ENE,73,0.0,1.0,91,-99.99,,,-99.99,,2013-01-01 08:11:00,
2013-01-01 00:22:00,22.0,20.0,-100.00,East,81,1.0,2.0,92,-99.99,,,-99.99,,2013-01-01 08:22:00,
2013-01-01 00:32:00,22.0,20.0,-100.00,East,81,1.0,2.0,92,-99.99,,,-99.99,,2013-01-01 08:32:00,
2013-01-01 00:42:00,22.0,20.0,-100.00,ESE,102,1.0,1.0,93,-99.99,,,-99.99,,2013-01-01 08:42:00,
2013-01-01 00:53:00,22.0,20.0,-100.00,East,93,0.0,1.0,92,-99.99,,,-99.99,,2013-01-01 08:53:00,
2013-01-01 01:02:00,22.0,20.0,-100.00,East,93,0.0,1.0,92,-99.99,,,-99.99,,2013-01-01 09:02:00,
2013-01-01 01:11:00,22.0,20.0,-100.00,East,92,0.0,1.0,92,-99.99,,,-99.99,,2013-01-01 09:11:00,
2013-01-01 01:22:00,22.0,20.0,-100.00,East,91,0.0,1.0,92,-99.99,,,-99.99,,2013-01-01 09:22:00,
2013-01-01 01:32:00,22.0,20.0,-100.00,East,101,0.0,1.0,91,-99.99,,,-99.99,,2013-01-01 09:32:00,
2013-01-01 01:42:00,23.0,19.0,-100.00,East,90,1.0,1.0,86,-99.99,,,-99.99,,2013-01-01 09:42:00,
2013-01-01 01:52:00,23.0,18.0,-100.00,East,98,1.0,1.0,82,-99.99,,,-99.99,,2013-01-01 09:52:00,
2013-01-01 02:01:00,23.0,18.0,-100.00,East,98,1.0,1.0,82,-99.99,,,-99.99,,2013-01-01 10:01:00,
2013-01-01 02:12:00,23.0,18.0,-100.00,East,83,0.0,1.0,82,-99.99,,,-99.99,,2013-01-01 10:12:00,
2013-01-01 02:22:00,23.0,18.0,-100.00,ENE,75,1.0,1.0,81,-99.99,,,-99.99,,2013-01-01 10:22:00,
2013-01-01 02:32:00,23.0,18.0,-100.00,ENE,70,0.0,1.0,82,-99.99,,,-99.99,,2013-01-01 10:32:00,
2013-01-01 02:42:00,22.0,17.0,-100.00,East,93,1.0,1.0,82,-99.99,,,-99.99,,2013-01-01 10:42:00,
2013-01-01 02:52:00,23.0,18.0,-100.00,East,91,1.0,1.0,82,-99.99,,,-99.99,,2013-01-01 10:52:00,
2013-01-01 03:02:00,23.0,18.0,-100.00,East,84,0.0,1.0,81,-99.99,,,-99.99,,2013-01-01 11:02:00,
2013-01-01 03:12:00,23.0,18.0,-100.00,East,94,1.0,1.0,80,-99.99,,,-99.99,,2013-01-01 11:12:00,
2013-01-01 03:22:00,24.0,18.0,-100.00,ENE,74,1.0,1.0,79,-99.99,,,-99.99,,2013-01-01 11:22:00,
2013-01-01 03:32:00,24.0,18.0,-100.00,East,82,1.0,1.0,76,-99.99,,,-99.99,,2013-01-01 11:32:00,
2013-01-01 03:42:00,24.0,18.0,-100.00,NE,56,0.0,1.0,78,-99.99,,,-99.99,,2013-01-01 11:42:00,
2013-01-01 03:52:00,23.0,18.0,-100.00,East,86,0.0,1.0,80,-99.99,,,-99.99,,2013-01-01 11:52:00,
2013-01-01 04:02:00,23.0,18.0,-100.00,East,86,0.0,1.0,80,-99.99,,,-99.99,,2013-01-01 12:02:00,
2013-01-01 04:12:00,23.0,18.0,-100.00,ENE,73,1.0,1.0,81,-99.99,,,-99.99,,2013-01-01 12:12:00,
2013-01-01 04:22:00,23.0,18.0,-100.00,ESE,116,1.0,2.0,82,-99.99,,,-99.99,,2013-01-01 12:22:00,
2013-01-01 04:32:00,23.0,18.0,-100.00,East,79,1.0,1.0,80,-99.99,,,-99.99,,2013-01-01 12:32:00,
2013-01-01 04:42:00,23.0,18.0,-100.00,East,79,1.0,1.0,80,-99.99,,,-99.99,,2013-01-01 12:42:00,
2013-01-01 04:52:00,25.0,17.0,-100.00,East,80,1.0,1.0,70,-99.99,,,-99.99,,2013-01-01 12:52:00,
2013-01-01 05:02:00,26.0,18.0,-100.00,ENE,68,1.0,5.0,70,-99.99,,,-99.99,,2013-01-01 13:02:00,
2013-01-01 05:12:00,27.0,19.0,-100.00,NE,54,1.0,1.0,72,-99.99,,,-99.99,,2013-01-01 13:12:00,
2013-01-01 05:22:00,25.0,18.0,-100.00,ESE,109,0.0,1.0,75,-99.99,,,-99.99,,2013-01-01 13:22:00,
2013-01-01 05:32:00,25.0,19.0,-100.00,ENE,78,1.0,2.0,77,-99.99,,,-99.99,,2013-01-01 13:32:00,
2013-01-01 05:42:00,24.0,18.0,-100.00,East,90,0.0,1.0,77,-99.99,,,-99.99,,2013-01-01 13:42:00,
2013-01-01 05:52:00,27.0,15.0,-100.00,ENE,74,1.0,1.0,61,-99.99,,,-99.99,,2013-01-01 13:52:00,
2013-01-01 06:02:00,27.0,15.0,-100.00,ENE,74,1.0,1.0,61,-99.99,,,-99.99,,2013-01-01 14:02:00,
2013-01-01 06:12:00,26.0,16.0,-100.00,NE,45,1.0,1.0,66,-99.99,,,-99.99,,2013-01-01 14:12:00,
2013-01-01 06:22:00,26.0,17.0,-100.00,ENE,78,1.0,1.0,68,-99.99,,,-99.99,,2013-01-01 14:22:00,
2013-01-01 06:32:00,25.0,18.0,-100.00,SE,124,0.0,1.0,74,-99.99,,,-99.99,,2013-01-01 14:32:00,
2013-01-01 06:42:00,24.0,17.0,-100.00,SE,127,0.0,1.0,75,-99.99,,,-99.99,,2013-01-01 14:42:00,
2013-01-01 06:52:00,24.0,18.0,-100.00,SE,127,1.0,1.0,76,-99.99,,,-99.99,,2013-01-01 14:52:00,
2013-01-01 07:02:00,24.0,18.0,-100.00,South,188,1.0,1.0,79,-99.99,,,-99.99,,2013-01-01 15:02:00,
2013-01-01 07:12:00,24.0,19.0,-100.00,SSE,151,1.0,2.0,82,-99.99,,,-99.99,,2013-01-01 15:12:00,
2013-01-01 07:22:00,25.0,20.0,-100.00,East,98,1.0,2.0,82,-99.99,,,-99.99,,2013-01-01 15:22:00,
2013-01-01 07:32:00,27.0,20.0,-100.00,NE,56,4.0,7.0,76,-99.99,,,-99.99,,2013-01-01 15:32:00,
2013-01-01 07:42:00,27.0,20.0,-100.00,NE,56,4.0,7.0,76,-99.99,,,-99.99,,2013-01-01 15:42:00,
2013-01-01 07:52:00,28.0,20.0,-100.00,NE,54,3.0,7.0,73,-99.99,,,-99.99,,2013-01-01 15:52:00,
2013-01-01 08:02:00,28.0,20.0,-100.00,ENE,63,4.0,8.0,70,-99.99,,,-99.99,,2013-01-01 16:02:00,
2013-01-01 08:12:00,28.0,19.0,-100.00,ENE,58,4.0,8.0,69,-99.99,,,-99.99,,2013-01-01 16:12:00,
2013-01-01 08:22:00,28.0,19.0,-100.00,NE,56,4.0,8.0,69,-99.99,,,-99.99,,2013-01-01 16:22:00,
2013-01-01 08:32:00,30.0,19.0,-100.00,ENE,57,4.0,8.0,62,-99.99,,,-99.99,,2013-01-01 16:32:00,
2013-01-01 08:42:00,30.0,19.0,-100.00,ENE,57,4.0,8.0,62,-99.99,,,-99.99,,2013-01-01 16:42:00,
2013-01-01 08:52:00,30.0,19.0,-100.00,ENE,60,5.0,9.0,62,-99.99,,,-99.99,,2013-01-01 16:52:00,
2013-01-01 09:02:00,30.0,18.0,-100.00,NE,48,3.0,9.0,61,-99.99,,,-99.99,,2013-01-01 17:02:00,
2013-01-01 09:12:00,31.0,18.0,-100.00,ENE,61,2.0,7.0,58,-99.99,,,-99.99,,2013-01-01 17:12:00,
2013-01-01 09:22:00,32.0,19.0,-100.00,NE,55,3.0,8.0,59,-99.99,,,-99.99,,2013-01-01 17:22:00,
2013-01-01 09:32:00,33.0,19.0,-100.00,NE,47,2.0,6.0,57,-99.99,,,-99.99,,2013-01-01 17:32:00,
2013-01-01 09:42:00,33.0,19.0,-100.00,NE,47,2.0,6.0,57,-99.99,,,-99.99,,2013-01-01 17:42:00,
2013-01-01 09:52:00,33.0,20.0,-100.00,ENE,73,2.0,4.0,58,-99.99,,,-99.99,,2013-01-01 17:52:00,
2013-01-01 10:02:00,33.0,21.0,-100.00,ENE,70,2.0,7.0,61,-99.99,,,-99.99,,2013-01-01 18:02:00,
2013-01-01 10:12:00,32.0,21.0,-100.00,ENE,67,3.0,6.0,63,-99.99,,,-99.99,,2013-01-01 18:12:00,
2013-01-01 10:22:00,33.0,21.0,-100.00,East,79,3.0,7.0,60,-99.99,,,-99.99,,2013-01-01 18:22:00,
2013-01-01 10:33:00,32.0,21.0,-100.00,ENE,69,3.0,6.0,64,-99.99,,,-99.99,,2013-01-01 18:33:00,
2013-01-01 10:42:00,32.0,21.0,-100.00,ENE,69,3.0,6.0,64,-99.99,,,-99.99,,2013-01-01 18:42:00,
2013-01-01 10:52:00,31.0,23.0,-100.00,ENE,64,4.0,7.0,71,-99.99,,,-99.99,,2013-01-01 18:52:00,
2013-01-01 11:02:00,30.0,23.0,-100.00,NE,52,4.0,8.0,74,-99.99,,,-99.99,,2013-01-01 19:02:00,
2013-01-01 11:11:00,30.0,22.0,-100.00,NE,38,3.0,8.0,73,-99.99,,,-99.99,,2013-01-01 19:11:00,
2013-01-01 11:22:00,31.0,23.0,-100.00,NNE,22,2.0,7.0,71,-99.99,,,-99.99,,2013-01-01 19:22:00,
2013-01-01 11:32:00,31.0,22.0,-100.00,ENE,69,2.0,6.0,68,-99.99,,,-99.99,,2013-01-01 19:32:00,
2013-01-01 11:42:00,30.0,21.0,-100.00,NNE,29,2.0,5.0,69,-99.99,,,-99.99,,2013-01-01 19:42:00,
2013-01-01 11:52:00,33.0,22.0,-100.00,NE,54,3.0,7.0,63,-99.99,,,-99.99,,2013-01-01 19:52:00,
2013-01-01 12:02:00,33.0,22.0,-100.00,NE,54,3.0,7.0,63,-99.99,,,-99.99,,2013-01-01 20:02:00,
2013-01-01 12:12:00,33.0,21.0,-100.00,ENE,67,3.0,10.0,60,-99.99,,,-99.99,,2013-01-01 20:12:00,
2013-01-01 12:22:00,31.0,20.0,-100.00,NE,56,3.0,9.0,62,-99.99,,,-99.99,,2013-01-01 20:22:00,
2013-01-01 12:32:00,30.0,19.0,-100.00,NE,39,3.0,8.0,63,-99.99,,,-99.99,,2013-01-01 20:32:00,
2013-01-01 12:42:00,31.0,19.0,-100.00,NNE,31,2.0,5.0,61,-99.99,,,-99.99,,2013-01-01 20:42:00,
2013-01-01 12:52:00,31.0,19.0,-100.00,NE,38,3.0,6.0,60,-99.99,,,-99.99,,2013-01-01 20:52:00,
2013-01-01 13:02:00,31.0,19.0,-100.00,ENE,57,2.0,6.0,60,-99.99,,,-99.99,,2013-01-01 21:02:00,
2013-01-01 13:12:00,30.0,18.0,-100.00,ENE,64,2.0,6.0,60,-99.99,,,-99.99,,2013-01-01 21:12:00,
2013-01-01 13:22:00,30.0,17.0,-100.00,ENE,69,3.0,8.0,59,-99.99,,,-99.99,,2013-01-01 21:22:00,
2013-01-01 13:32:00,30.0,17.0,-100.00,NE,49,3.0,7.0,58,-99.99,,,-99.99,,2013-01-01 21:32:00,
2013-01-01 13:42:00,30.0,17.0,-100.00,NE,39,2.0,6.0,57,-99.99,,,-99.99,,2013-01-01 21:42:00,
2013-01-01 13:52:00,32.0,17.0,-100.00,NE,42,3.0,8.0,54,-99.99,,,-99.99,,2013-01-01 21:52:00,
2013-01-01 14:02:00,32.0,17.0,-100.00,NE,42,3.0,8.0,54,-99.99,,,-99.99,,2013-01-01 22:02:00,
2013-01-01 14:12:00,30.0,16.0,-100.00,NE,47,3.0,7.0,56,-99.99,,,-99.99,,2013-01-01 22:12:00,
2013-01-01 14:22:00,30.0,17.0,-100.00,NE,51,3.0,8.0,58,-99.99,,,-99.99,,2013-01-01 22:22:00,
2013-01-01 14:32:00,30.0,17.0,-100.00,ENE,58,3.0,8.0,57,-99.99,,,-99.99,,2013-01-01 22:32:00,
2013-01-01 14:42:00,30.0,17.0,-100.00,ENE,57,3.0,7.0,57,-99.99,,,-99.99,,2013-01-01 22:42:00,
2013-01-01 14:52:00,30.0,17.0,-100.00,NE,53,3.0,9.0,57,-99.99,,,-99.99,,2013-01-01 22:52:00,
2013-01-01 15:02:00,30.0,17.0,-100.00,NE,50,3.0,7.0,57,-99.99,,,-99.99,,2013-01-01 23:02:00,
2013-01-01 15:12:00,29.0,17.0,-100.00,NE,50,4.0,7.0,60,-99.99,,,-99.99,,2013-01-01 23:12:00,
2013-01-01 15:22:00,29.0,16.0,-100.00,NE,55,4.0,8.0,59,-99.99,,,-99.99,,2013-01-01 23:22:00,
2013-01-01 15:32:00,29.0,16.0,-100.00,NE,45,4.0,8.0,58,-99.99,,,-99.99,,2013-01-01 23:32:00,
2013-01-01 15:42:00,29.0,16.0,-100.00,NE,45,4.0,8.0,58,-99.99,,,-99.99,,2013-01-01 23:42:00,
2013-01-01 15:52:00,28.0,16.0,-100.00,NE,42,4.0,8.0,59,-99.99,,,-99.99,,2013-01-01 23:52:00,
2013-01-01 16:02:00,28.0,15.0,-100.00,NE,54,4.0,8.0,58,-99.99,,,-99.99,,2013-01-02 00:02:00,
2013-01-01 16:12:00,28.0,16.0,-100.00,ENE,62,4.0,9.0,59,-99.99,,,-99.99,,2013-01-02 00:12:00,
2013-01-01 16:22:00,28.0,15.0,-100.00,ENE,58,3.0,7.0,58,-99.99,,,-99.99,,2013-01-02 00:22:00,
2013-01-01 16:32:00,28.0,16.0,-100.00,NE,51,4.0,7.0,60,-99.99,,,-99.99,,2013-01-02 00:32:00,
2013-01-01 16:42:00,27.0,14.0,-100.00,NE,56,4.0,6.0,58,-99.99,,,-99.99,,2013-01-02 00:42:00,
2013-01-01 16:52:00,27.0,14.0,-100.00,ENE,62,4.0,10.0,58,-99.99,,,-99.99,,2013-01-02 00:52:00,
2013-01-01 17:02:00,27.0,13.0,-100.00,ENE,62,3.0,8.0,54,-99.99,,,-99.99,,2013-01-02 01:02:00,
2013-01-01 17:11:00,27.0,9.0,-100.00,NE,54,4.0,7.0,46,-99.99,,,-99.99,,2013-01-02 01:11:00,
2013-01-01 17:22:00,27.0,9.0,-100.00,NE,45,3.0,7.0,47,-99.99,,,-99.99,,2013-01-02 01:22:00,
2013-01-01 17:32:00,27.0,9.0,-100.00,NE,51,4.0,9.0,47,-99.99,,,-99.99,,2013-01-02 01:32:00,
2013-01-01 17:42:00,27.0,9.0,-100.00,NE,51,4.0,9.0,47,-99.99,,,-99.99,,2013-01-02 01:42:00,
2013-01-01 17:52:00,27.0,9.0,-100.00,ENE,58,4.0,9.0,45,-99.99,,,-99.99,,2013-01-02 01:52:00,
2013-01-01 18:02:00,28.0,8.0,-100.00,NE,53,5.0,9.0,42,-99.99,,,-99.99,,2013-01-02 02:02:00,
2013-01-01 18:12:00,28.0,8.0,-100.00,ENE,57,5.0,9.0,42,-99.99,,,-99.99,,2013-01-02 02:12:00,
2013-01-01 18:22:00,28.0,8.0,-100.00,NE,51,6.0,10.0,42,-99.99,,,-99.99,,2013-01-02 02:22:00,
2013-01-01 18:32:00,28.0,8.0,-100.00,NE,44,5.0,10.0,43,-99.99,,,-99.99,,2013-01-02 02:32:00,
2013-01-01 18:42:00,28.0,8.0,-100.00,NE,44,5.0,10.0,43,-99.99,,,-99.99,,2013-01-02 02:42:00,
2013-01-01 18:52:00,28.0,8.0,-100.00,NE,49,5.0,10.0,43,-99.99,,,-99.99,,2013-01-02 02:52:00,
2013-01-01 19:02:00,28.0,9.0,-100.00,NE,48,5.0,10.0,44,-99.99,,,-99.99,,2013-01-02 03:02:00,
2013-01-01 19:11:00,28.0,9.0,-100.00,NE,43,6.0,16.0,45,-99.99,,,-99.99,,2013-01-02 03:11:00,
2013-01-01 19:22:00,28.0,9.0,-100.00,NE,46,6.0,11.0,45,-99.99,,,-99.99,,2013-01-02 03:22:00,
2013-01-01 19:32:00,28.0,10.0,-100.00,NE,41,5.0,9.0,46,-99.99,,,-99.99,,2013-01-02 03:32:00,
2013-01-01 19:42:00,28.0,10.0,-100.00,NE,46,5.0,9.0,47,-99.99,,,-99.99,,2013-01-02 03:42:00,
2013-01-01 19:52:00,28.0,11.0,-100.00,NE,43,4.0,10.0,48,-99.99,,,-99.99,,2013-01-02 03:52:00,
2013-01-01 20:02:00,28.0,9.0,-100.00,NE,36,5.0,11.0,45,-99.99,,,-99.99,,2013-01-02 04:02:00,
2013-01-01 20:12:00,28.0,9.0,-100.00,NE,49,5.0,11.0,45,-99.99,,,-99.99,,2013-01-02 04:12:00,
2013-01-01 20:22:00,28.0,8.0,-100.00,NE,48,5.0,9.0,43,-99.99,,,-99.99,,2013-01-02 04:22:00,
2013-01-01 20:32:00,28.0,8.0,-100.00,NE,42,3.0,7.0,42,-99.99,,,-99.99,,2013-01-02 04:32:00,
2013-01-01 20:42:00,28.0,8.0,-100.00,NE,42,3.0,7.0,42,-99.99,,,-99.99,,2013-01-02 04:42:00,
2013-01-01 20:52:00,28.0,7.0,-100.00,NE,44,4.0,8.0,40,-99.99,,,-99.99,,2013-01-02 04:52:00,
2013-01-01 21:02:00,28.0,7.0,-100.00,NE,47,4.0,8.0,41,-99.99,,,-99.99,,2013-01-02 05:02:00,
2013-01-01 21:12:00,28.0,8.0,-100.00,NE,42,4.0,9.0,42,-99.99,,,-99.99,,2013-01-02 05:12:00,
2013-01-01 21:22:00,27.0,7.0,-100.00,NE,48,3.0,7.0,42,-99.99,,,-99.99,,2013-01-02 05:22:00,
2013-01-01 21:32:00,27.0,8.0,-100.00,NE,51,3.0,7.0,44,-99.99,,,-99.99,,2013-01-02 05:32:00,
2013-01-01 21:42:00,28.0,9.0,-100.00,NE,48,4.0,9.0,45,-99.99,,,-99.99,,2013-01-02 05:42:00,
2013-01-01 21:52:00,28.0,9.0,-100.00,NE,52,5.0,11.0,44,-99.99,,,-99.99,,2013-01-02 05:52:00,
2013-01-01 22:02:00,28.0,9.0,-100.00,NE,49,6.0,11.0,44,-99.99,,,-99.99,,2013-01-02 06:02:00,
2013-01-01 22:11:00,28.0,10.0,-100.00,NE,42,4.0,12.0,46,-99.99,,,-99.99,,2013-01-02 06:11:00,
2013-01-01 22:22:00,28.0,10.0,-100.00,NE,44,5.0,10.0,47,-99.99,,,-99.99,,2013-01-02 06:22:00,
2013-01-01 22:32:00,28.0,9.0,-100.00,NE,42,5.0,14.0,45,-99.99,,,-99.99,,2013-01-02 06:32:00,
2013-01-01 22:42:00,28.0,9.0,-100.00,NE,42,5.0,14.0,45,-99.99,,,-99.99,,2013-01-02 06:42:00,
2013-01-01 22:52:00,28.0,9.0,-100.00,NE,40,5.0,12.0,45,-99.99,,,-99.99,,2013-01-02 06:52:00,
2013-01-01 23:02:00,28.0,10.0,-100.00,ENE,57,4.0,10.0,47,-99.99,,,-99.99,,2013-01-02 07:02:00,
2013-01-01 23:12:00,27.0,9.0,-100.00,NE,56,4.0,10.0,47,-99.99,,,-99.99,,2013-01-02 07:12:00,
2013-01-01 23:22:00,27.0,10.0,-100.00,NE,49,5.0,11.0,48,-99.99,,,-99.99,,2013-01-02 07:22:00,
2013-01-01 23:32:00,27.0,9.0,-100.00,NE,40,5.0,15.0,47,-99.99,,,-99.99,,2013-01-02 07:32:00,
2013-01-01 23:42:00,27.0,9.0,-100.00,NE,50,4.0,10.0,46,-99.99,,,-99.99,,2013-01-02 07:42:00,
2013-01-01 23:52:00,27.0,10.0,-100.00,NE,43,5.0,12.0,48,-99.99,,,-99.99,,2013-01-02 07:52:00,